Time;durP1;ratioP1;P1;durP2;ratioP2;P2;SDS_P1;SDS_P2;PMS_P1;PMS_P2;Temp;Humidity;BMP_temperature;BMP_pressure;BME280_temperature;BME280_humidity;BME280_pressure;Samples;Min_cycle;Max_cycle;Signal;HPM_P1;HPM_P2
2023/04/08 00:01:24;;;;;;;0.28;0.10;;;21.30;99.90;;;;;;4948429;28;20590;-77
2023/04/08 00:03:55;;;;;;;0.30;0.20;;;21.30;99.90;;;;;;4946881;29;20201;-76
2023/04/08 00:06:28;;;;;;;0.38;0.10;;;21.40;99.90;;;;;;4948885;29;20197;-80
2023/04/08 00:08:59;;;;;;;0.65;0.10;;;21.40;99.90;;;;;;4944284;29;20221;-77
2023/04/08 00:11:30;;;;;;;0.10;0.10;;;21.40;99.90;;;;;;4951131;29;20572;-78
2023/04/08 00:14:03;;;;;;;0.15;0.10;;;21.40;99.90;;;;;;4952435;28;20197;-80
2023/04/08 00:16:34;;;;;;;0.63;0.20;;;21.40;99.90;;;;;;4957252;29;20291;-86
2023/04/08 00:19:05;;;;;;;0.10;0.10;;;21.40;99.90;;;;;;4954688;29;20208;-81
2023/04/08 00:21:38;;;;;;;0.10;0.10;;;21.40;99.90;;;;;;4952353;29;20276;-82
2023/04/08 00:24:09;;;;;;;1.55;0.10;;;21.50;99.90;;;;;;4952211;29;20208;-78
2023/04/08 00:26:40;;;;;;;0.40;0.20;;;21.60;99.90;;;;;;4949927;29;20204;-77
2023/04/08 00:29:11;;;;;;;0.10;0.10;;;21.60;99.90;;;;;;4950843;29;20208;-80
2023/04/08 00:31:42;;;;;;;0.17;0.10;;;21.60;99.90;;;;;;4954340;29;20197;-80
2023/04/08 00:34:14;;;;;;;0.45;0.10;;;21.70;99.90;;;;;;4955193;29;20568;-76
2023/04/08 00:36:47;;;;;;;0.10;0.10;;;21.80;99.90;;;;;;4954423;29;20193;-81
2023/04/08 00:39:18;;;;;;;0.90;0.20;;;21.90;99.90;;;;;;4952806;29;20212;-77
2023/04/08 00:41:49;;;;;;;0.70;0.10;;;22.00;99.90;;;;;;4946489;29;20209;-79
2023/04/08 00:44:20;;;;;;;0.10;0.10;;;22.10;99.90;;;;;;4947250;29;20197;-80
2023/04/08 00:46:51;;;;;;;0.10;0.10;;;22.20;99.90;;;;;;4955548;29;20210;-83
2023/04/08 00:49:22;;;;;;;1.45;0.20;;;22.20;99.90;;;;;;4955826;29;20665;-83
2023/04/08 00:51:56;;;;;;;0.52;0.52;;;22.40;99.90;;;;;;4947574;29;20213;-80
2023/04/08 00:54:27;;;;;;;0.25;0.10;;;22.40;99.90;;;;;;4953809;29;20260;-78
2023/04/08 00:56:58;;;;;;;0.20;0.10;;;22.30;99.90;;;;;;4952415;29;20290;-79
2023/04/08 00:59:31;;;;;;;0.10;0.10;;;22.30;99.90;;;;;;4950383;29;20197;-77
2023/04/08 01:02:13;;;;;;;0.10;0.10;;;22.20;99.90;;;;;;4952345;28;20685;-79
2023/04/08 01:04:53;;;;;;;0.20;0.10;;;22.20;99.90;;;;;;4952524;29;20668;-80
2023/04/08 01:07:29;;;;;;;0.50;0.17;;;22.30;99.90;;;;;;4949296;29;20204;-78
2023/04/08 01:10:05;;;;;;;1.08;0.15;;;22.40;99.90;;;;;;4939021;29;20205;-79
2023/04/08 01:12:43;;;;;;;0.22;0.20;;;22.50;99.90;;;;;;4947952;29;20223;-79
2023/04/08 01:15:15;;;;;;;0.00;0.00;;;22.50;99.90;;;;;;4954824;29;20645;-78
2023/04/08 01:17:47;;;;;;;0.30;0.13;;;22.60;99.90;;;;;;4950925;29;20197;-82
2023/04/08 01:20:20;;;;;;;0.13;0.10;;;22.60;99.90;;;;;;4949575;29;20238;-80
2023/04/08 01:23:11;;;;;;;0.10;0.10;;;22.60;99.90;;;;;;4951623;29;20237;-86
2023/04/08 01:25:48;;;;;;;0.55;0.20;;;22.80;99.90;;;;;;4948606;29;20197;-82
2023/04/08 01:28:22;;;;;;;0.10;0.10;;;22.90;99.90;;;;;;4951694;29;20644;-83
2023/04/08 01:30:55;;;;;;;0.75;0.13;;;22.80;99.90;;;;;;4955394;29;20200;-80
2023/04/08 01:33:29;;;;;;;0.98;0.10;;;22.80;99.90;;;;;;4953519;29;20205;-83
2023/04/08 01:36:01;;;;;;;0.65;0.10;;;22.90;99.90;;;;;;4951504;29;20199;-78
2023/04/08 01:38:33;;;;;;;0.15;0.10;;;22.90;99.90;;;;;;4948519;28;20252;-81
2023/04/08 01:41:08;;;;;;;0.95;0.10;;;22.90;99.90;;;;;;4950224;29;20216;-78
2023/04/08 01:43:41;;;;;;;0.10;0.10;;;22.80;99.90;;;;;;4952240;29;20216;-81
2023/04/08 01:46:14;;;;;;;1.02;0.30;;;22.90;99.90;;;;;;4950792;29;20193;-79
2023/04/08 01:48:47;;;;;;;0.20;0.10;;;22.90;99.90;;;;;;4953884;29;20236;-79
2023/04/08 01:51:18;;;;;;;0.38;0.28;;;22.90;99.90;;;;;;4953013;29;20211;-80
2023/04/08 01:53:50;;;;;;;0.73;0.30;;;23.10;99.90;;;;;;4955211;29;20213;-77
2023/04/08 01:56:25;;;;;;;1.40;0.10;;;23.50;99.90;;;;;;4955858;29;20200;-78
2023/04/08 01:59:00;;;;;;;0.20;0.20;;;23.50;99.90;;;;;;4956449;29;20572;-80
2023/04/08 02:01:34;;;;;;;0.20;0.10;;;23.30;99.90;;;;;;4955790;29;20206;-81
2023/04/08 02:04:05;;;;;;;0.20;0.10;;;23.20;99.90;;;;;;4956020;29;20641;-83
2023/04/08 02:06:37;;;;;;;0.40;0.20;;;23.20;99.90;;;;;;4955942;29;20200;-80
2023/04/08 02:09:09;;;;;;;0.10;0.10;;;23.00;99.90;;;;;;4943091;29;20201;-77
2023/04/08 02:11:42;;;;;;;1.00;0.17;;;23.00;99.90;;;;;;4936566;29;20297;-77
2023/04/08 02:14:13;;;;;;;1.63;0.20;;;23.20;99.90;;;;;;4951223;29;20215;-80
2023/04/08 02:16:51;;;;;;;0.20;0.20;;;23.20;99.90;;;;;;4954861;29;20197;-79
2023/04/08 02:19:29;;;;;;;0.57;0.30;;;23.30;99.90;;;;;;4955574;29;20673;-82
2023/04/08 02:22:06;;;;;;;0.17;0.17;;;23.40;99.90;;;;;;4953990;29;20229;-78
2023/04/08 02:24:40;;;;;;;0.10;0.10;;;23.60;99.90;;;;;;4954973;29;20570;-77
2023/04/08 02:27:17;;;;;;;0.20;0.20;;;23.70;99.90;;;;;;4949955;29;20212;-76
2023/04/08 02:29:49;;;;;;;0.20;0.20;;;23.50;99.90;;;;;;4955517;29;20581;-76
2023/04/08 02:32:21;;;;;;;1.02;0.20;;;23.50;99.90;;;;;;4955545;29;20197;-81
2023/04/08 02:34:52;;;;;;;0.10;0.10;;;23.80;99.90;;;;;;4955466;29;20570;-81
2023/04/08 02:37:24;;;;;;;0.20;0.20;;;23.70;99.90;;;;;;4955248;28;20196;-82
2023/04/08 02:39:55;;;;;;;0.30;0.30;;;23.60;99.90;;;;;;4955165;29;20197;-82
2023/04/08 02:42:28;;;;;;;0.20;0.17;;;23.50;99.90;;;;;;4955319;29;20221;-85
2023/04/08 02:45:00;;;;;;;0.50;0.38;;;23.50;99.90;;;;;;4951788;29;20211;-83
2023/04/08 02:47:31;;;;;;;0.10;0.10;;;23.60;99.90;;;;;;4955250;29;20193;-80
2023/04/08 02:50:02;;;;;;;0.25;0.25;;;23.70;99.90;;;;;;4955256;29;20193;-78
2023/04/08 02:52:33;;;;;;;0.63;0.20;;;23.70;99.90;;;;;;4955281;29;20197;-79
2023/04/08 02:55:05;;;;;;;0.17;0.10;;;23.90;99.90;;;;;;4955039;29;20200;-79
2023/04/08 02:57:38;;;;;;;0.22;0.20;;;23.80;99.90;;;;;;4955281;29;20200;-75
2023/04/08 03:00:10;;;;;;;0.10;0.10;;;23.60;99.90;;;;;;4953991;29;20585;-76
2023/04/08 03:02:41;;;;;;;0.20;0.20;;;23.60;99.90;;;;;;4953474;29;20248;-80
2023/04/08 03:05:15;;;;;;;0.35;0.20;;;23.80;99.90;;;;;;4955121;29;20205;-75
2023/04/08 03:07:46;;;;;;;1.10;0.20;;;24.00;99.90;;;;;;4954804;29;20197;-76
2023/04/08 03:10:17;;;;;;;0.20;0.20;;;23.90;99.90;;;;;;4955318;29;20204;-82
2023/04/08 03:12:50;;;;;;;0.20;0.20;;;23.90;99.90;;;;;;4955012;29;20197;-80
2023/04/08 03:15:21;;;;;;;2.05;0.20;;;24.00;99.90;;;;;;4955101;29;20565;-78
2023/04/08 03:17:52;;;;;;;0.20;0.20;;;23.90;99.90;;;;;;4955002;29;20633;-80
2023/04/08 03:20:23;;;;;;;0.10;0.10;;;23.90;99.90;;;;;;4954970;29;20197;-82
2023/04/08 03:22:56;;;;;;;0.93;0.20;;;24.00;99.90;;;;;;4954774;29;20297;-82
2023/04/08 03:25:28;;;;;;;0.13;0.13;;;24.10;99.90;;;;;;4955007;29;20574;-81
2023/04/08 03:28:01;;;;;;;0.20;0.20;;;24.00;99.90;;;;;;4954844;29;20232;-81
2023/04/08 03:30:32;;;;;;;0.30;0.20;;;23.90;99.90;;;;;;4949376;29;20572;-76
2023/04/08 03:33:06;;;;;;;0.17;0.15;;;23.90;99.90;;;;;;4954974;29;20284;-79
2023/04/08 03:35:38;;;;;;;0.20;0.20;;;23.80;99.90;;;;;;4954923;29;20203;-78
2023/04/08 03:38:09;;;;;;;0.30;0.20;;;23.80;99.90;;;;;;4954733;29;20197;-78
2023/04/08 03:40:40;;;;;;;1.25;0.20;;;23.90;99.90;;;;;;4955138;29;20197;-79
2023/04/08 03:43:13;;;;;;;0.20;0.20;;;23.90;99.90;;;;;;4954799;29;20227;-81
2023/04/08 03:45:44;;;;;;;0.20;0.20;;;23.90;99.90;;;;;;4954805;29;20408;-79
2023/04/08 03:48:15;;;;;;;0.25;0.20;;;23.90;99.90;;;;;;4955719;28;20633;-80
2023/04/08 03:50:46;;;;;;;1.25;0.30;;;23.80;99.90;;;;;;4958168;29;20652;-81
2023/04/08 03:53:17;;;;;;;0.40;0.25;;;23.70;99.90;;;;;;4958725;29;20660;-80
2023/04/08 03:55:51;;;;;;;0.20;0.20;;;23.70;99.90;;;;;;4958307;29;20212;-79
2023/04/08 03:58:24;;;;;;;0.70;0.30;;;23.70;99.90;;;;;;4958489;29;20197;-81
2023/04/08 04:00:55;;;;;;;1.67;0.75;;;23.70;99.90;;;;;;4957989;29;20228;-79
2023/04/08 04:03:26;;;;;;;0.22;0.20;;;23.80;99.90;;;;;;4958318;28;20256;-81
2023/04/08 04:05:58;;;;;;;0.30;0.30;;;23.80;99.90;;;;;;4957827;29;20561;-81
2023/04/08 04:08:29;;;;;;;0.20;0.20;;;23.80;99.90;;;;;;4958329;29;20659;-81
2023/04/08 04:11:01;;;;;;;0.28;0.22;;;23.70;99.90;;;;;;4957819;29;20204;-79
2023/04/08 04:13:34;;;;;;;0.45;0.30;;;23.50;99.90;;;;;;4957998;29;20200;-76
2023/04/08 04:16:05;;;;;;;0.35;0.35;;;23.30;99.90;;;;;;4957862;29;20219;-81
2023/04/08 04:18:36;;;;;;;1.02;0.30;;;23.20;99.90;;;;;;4957794;29;20189;-81
2023/04/08 04:21:09;;;;;;;0.28;0.28;;;23.10;99.90;;;;;;4957807;29;20197;-81
2023/04/08 04:23:40;;;;;;;0.77;0.30;;;23.00;99.90;;;;;;4957685;29;20315;-80
2023/04/08 04:26:12;;;;;;;0.38;0.28;;;22.90;99.90;;;;;;4958042;29;20194;-79
2023/04/08 04:28:45;;;;;;;1.55;0.30;;;22.80;99.90;;;;;;4957555;29;20193;-82
2023/04/08 04:31:22;;;;;;;0.28;0.20;;;22.90;99.90;;;;;;4957635;29;20201;-80
2023/04/08 04:33:53;;;;;;;1.05;0.30;;;22.80;99.90;;;;;;4957624;29;20193;-86
2023/04/08 04:36:24;;;;;;;0.85;0.30;;;22.80;99.90;;;;;;4957507;29;20196;-82
2023/04/08 04:38:55;;;;;;;0.20;0.20;;;22.90;99.90;;;;;;4957452;29;20574;-84
2023/04/08 04:41:26;;;;;;;1.33;0.25;;;23.00;99.90;;;;;;4957775;29;20544;-80
2023/04/08 04:44:00;;;;;;;0.88;0.30;;;23.10;99.90;;;;;;4957269;29;20225;-77
2023/04/08 04:46:31;;;;;;;2.38;0.30;;;23.30;99.90;;;;;;4957461;29;20204;-78
2023/04/08 04:49:02;;;;;;;1.83;0.70;;;23.40;99.90;;;;;;4957072;29;20201;-79
2023/04/08 04:51:35;;;;;;;0.40;0.35;;;23.30;99.90;;;;;;4957217;29;20193;-73
2023/04/08 04:54:06;;;;;;;0.28;0.28;;;23.20;99.90;;;;;;4957125;29;20224;-82
2023/04/08 04:56:37;;;;;;;1.20;0.40;;;23.10;99.90;;;;;;4957071;29;20200;-83
2023/04/08 04:59:10;;;;;;;0.30;0.30;;;23.20;99.90;;;;;;4956978;28;20193;-83
2023/04/08 05:01:41;;;;;;;0.40;0.30;;;23.20;99.90;;;;;;4956847;29;20208;-77
2023/04/08 05:04:12;;;;;;;2.10;0.50;;;23.20;99.90;;;;;;4956780;29;20221;-79
2023/04/08 05:06:43;;;;;;;0.30;0.30;;;23.30;99.90;;;;;;4957059;29;20220;-76
2023/04/08 05:09:14;;;;;;;0.30;0.30;;;23.30;99.90;;;;;;4957077;29;20197;-77
2023/04/08 05:11:45;;;;;;;0.40;0.32;;;23.30;99.90;;;;;;4957358;29;20193;-80
2023/04/08 05:14:18;;;;;;;0.47;0.43;;;23.40;99.90;;;;;;4956727;29;20660;-77
2023/04/08 05:16:49;;;;;;;0.30;0.30;;;23.50;99.90;;;;;;4938444;29;20202;-77
2023/04/08 05:19:20;;;;;;;0.45;0.45;;;23.50;99.90;;;;;;4932625;29;20418;-78
2023/04/08 05:21:51;;;;;;;0.38;0.38;;;23.40;99.90;;;;;;4937650;29;20279;-83
2023/04/08 05:24:22;;;;;;;0.47;0.40;;;23.30;99.90;;;;;;4937499;29;20237;-76
2023/04/08 05:26:53;;;;;;;1.13;0.55;;;23.30;99.90;;;;;;4937495;29;20190;-76
2023/04/08 05:29:27;;;;;;;0.40;0.40;;;23.10;99.90;;;;;;4937413;29;20197;-80
2023/04/08 05:31:58;;;;;;;1.98;0.50;;;23.00;99.90;;;;;;4937371;29;20207;-84
2023/04/08 05:34:29;;;;;;;0.50;0.50;;;22.90;99.90;;;;;;4937082;29;20216;-76
2023/04/08 05:37:00;;;;;;;0.47;0.47;;;22.80;99.90;;;;;;4937501;29;20193;-76
2023/04/08 05:39:31;;;;;;;0.50;0.50;;;22.70;99.90;;;;;;4937068;29;20200;-76
2023/04/08 05:42:02;;;;;;;0.60;0.60;;;22.70;99.90;;;;;;4937109;29;20200;-78
2023/04/08 05:44:35;;;;;;;0.82;0.60;;;22.70;99.90;;;;;;4937169;29;20248;-78
2023/04/08 05:47:06;;;;;;;0.70;0.70;;;22.70;99.90;;;;;;4936870;29;20713;-79
2023/04/08 05:49:39;;;;;;;1.55;0.80;;;22.70;99.90;;;;;;4936965;29;20193;-77
2023/04/08 05:52:10;;;;;;;1.00;0.90;;;22.60;99.90;;;;;;4937019;29;20261;-73
2023/04/08 05:54:44;;;;;;;1.35;0.90;;;22.50;99.90;;;;;;4936951;29;20209;-79
2023/04/08 05:57:15;;;;;;;0.90;0.82;;;22.60;99.90;;;;;;4936863;29;20200;-77
2023/04/08 05:59:48;;;;;;;2.58;0.90;;;22.70;99.90;;;;;;4936726;29;20228;-79
2023/04/08 06:02:19;;;;;;;1.38;0.93;;;22.80;99.90;;;;;;4943328;29;20598;-77
2023/04/08 06:04:54;;;;;;;1.50;1.13;;;22.80;99.90;;;;;;4956299;29;20223;-77
2023/04/08 06:07:25;;;;;;;0.90;0.82;;;22.70;99.90;;;;;;4956172;29;20193;-76
2023/04/08 06:09:56;;;;;;;0.98;0.90;;;22.60;99.90;;;;;;4956144;29;20295;-77
2023/04/08 06:12:27;;;;;;;1.75;0.82;;;22.70;99.90;;;;;;4955366;28;20197;-77
2023/04/08 06:15:00;;;;;;;0.73;0.73;;;22.70;99.90;;;;;;4955883;29;20571;-79
2023/04/08 06:17:31;;;;;;;1.90;0.80;;;22.80;99.90;;;;;;4955529;29;20208;-76
2023/04/08 06:20:04;;;;;;;1.40;0.90;;;22.70;99.90;;;;;;4955697;29;20200;-78
2023/04/08 06:22:35;;;;;;;1.10;0.90;;;22.60;99.90;;;;;;4955719;29;20212;-77
2023/04/08 06:25:06;;;;;;;1.52;1.10;;;22.60;99.90;;;;;;4955823;29;20231;-76
2023/04/08 06:27:37;;;;;;;1.40;1.08;;;22.50;99.90;;;;;;4955550;29;20297;-76
2023/04/08 06:30:11;;;;;;;1.30;1.20;;;22.50;99.90;;;;;;4955505;29;20213;-78
2023/04/08 06:32:42;;;;;;;2.35;1.00;;;22.50;99.90;;;;;;4955523;29;20197;-78
2023/04/08 06:35:13;;;;;;;2.03;1.30;;;22.40;99.90;;;;;;4955825;29;20197;-79
2023/04/08 06:37:45;;;;;;;2.13;1.30;;;22.40;99.90;;;;;;4955348;29;20197;-78
2023/04/08 06:40:16;;;;;;;1.70;1.40;;;22.40;99.90;;;;;;4955336;29;20204;-76
2023/04/08 06:42:47;;;;;;;1.50;1.40;;;22.40;99.90;;;;;;4955313;29;20197;-77
2023/04/08 06:45:20;;;;;;;1.77;1.40;;;22.40;99.90;;;;;;4955334;29;20227;-79
2023/04/08 06:47:51;;;;;;;1.52;1.10;;;22.30;99.90;;;;;;4955405;29;20200;-82
2023/04/08 06:50:22;;;;;;;1.42;1.30;;;22.30;99.90;;;;;;4955230;29;20200;-77
2023/04/08 06:52:53;;;;;;;2.00;1.52;;;22.30;99.90;;;;;;4955225;29;20558;-81
2023/04/08 06:55:24;;;;;;;1.73;1.40;;;22.30;99.90;;;;;;4955268;29;20197;-76
2023/04/08 06:57:55;;;;;;;2.95;1.40;;;22.20;99.90;;;;;;4955227;29;20197;-77
2023/04/08 07:00:29;;;;;;;2.33;1.40;;;22.20;99.90;;;;;;4954899;29;20228;-76
2023/04/08 07:03:00;;;;;;;2.03;1.42;;;22.20;99.90;;;;;;4955037;29;20307;-78
2023/04/08 07:05:31;;;;;;;7.45;1.50;;;22.20;99.90;;;;;;4955068;29;20251;-75
2023/04/08 07:08:02;;;;;;;4.00;1.58;;;22.20;99.90;;;;;;4955260;29;20313;-76
2023/04/08 07:10:33;;;;;;;2.47;1.40;;;22.10;99.90;;;;;;4954962;29;20652;-77
2023/04/08 07:13:05;;;;;;;2.47;1.70;;;22.10;99.90;;;;;;4955086;29;20193;-77
2023/04/08 07:15:38;;;;;;;1.90;1.45;;;22.00;99.90;;;;;;4954907;29;20200;-77
2023/04/08 07:18:11;;;;;;;1.75;1.50;;;22.00;99.90;;;;;;4955136;29;20193;-78
2023/04/08 07:20:42;;;;;;;1.55;1.45;;;21.90;99.90;;;;;;4949365;29;20211;-78
2023/04/08 07:23:13;;;;;;;1.48;1.38;;;21.80;99.90;;;;;;4938277;29;20552;-79
2023/04/08 07:25:44;;;;;;;1.67;1.38;;;21.80;99.90;;;;;;4939756;29;20201;-83
2023/04/08 07:28:15;;;;;;;1.85;1.50;;;21.70;99.90;;;;;;4939537;29;20190;-80
2023/04/08 07:30:48;;;;;;;2.85;1.52;;;21.60;99.90;;;;;;4939932;29;20194;-78
2023/04/08 07:33:19;;;;;;;2.25;1.60;;;21.60;99.90;;;;;;4939482;29;20646;-78
2023/04/08 07:35:50;;;;;;;3.17;1.80;;;21.50;99.90;;;;;;4939540;29;20198;-76
2023/04/08 07:38:21;;;;;;;2.15;1.80;;;21.40;99.90;;;;;;4939460;29;20197;-81
2023/04/08 07:40:52;;;;;;;3.28;1.70;;;21.40;99.90;;;;;;4939737;29;20194;-78
2023/04/08 07:43:23;;;;;;;2.30;1.75;;;21.30;99.90;;;;;;4939085;29;20563;-77
2023/04/08 07:46:02;;;;;;;2.20;1.73;;;21.30;99.90;;;;;;4939306;29;20197;-77
2023/04/08 07:48:33;;;;;;;3.05;1.70;;;21.20;99.90;;;;;;4939278;29;20284;-77
2023/04/08 07:51:07;;;;;;;1.95;1.75;;;21.20;99.90;;;;;;4939252;29;20198;-76
2023/04/08 07:53:38;;;;;;;3.45;1.60;;;21.20;99.90;;;;;;4939359;29;20626;-76
2023/04/08 07:56:14;;;;;;;2.67;1.80;;;21.10;99.90;;;;;;4939206;29;20201;-76
2023/04/08 07:58:45;;;;;;;2.55;1.73;;;21.10;99.90;;;;;;4960607;23;20239;-74
2023/04/08 08:01:22;;;;;;;1.95;1.67;;;21.10;99.90;;;;;;4977564;28;20215;-75
2023/04/08 08:03:54;;;;;;;3.22;1.70;;;21.00;99.90;;;;;;4977746;28;20705;-75
2023/04/08 08:06:26;;;;;;;2.30;1.60;;;21.00;99.90;;;;;;4977534;28;20251;-74
2023/04/08 08:08:57;;;;;;;3.53;1.75;;;20.90;99.90;;;;;;4977467;28;20196;-74
2023/04/08 08:11:28;;;;;;;2.35;1.88;;;20.90;99.90;;;;;;4977369;28;20192;-74
2023/04/08 08:13:59;;;;;;;2.00;1.80;;;20.80;99.90;;;;;;4977117;28;20200;-75
2023/04/08 08:16:35;;;;;;;2.20;1.65;;;20.80;99.90;;;;;;4977654;28;20214;-74
2023/04/08 08:19:07;;;;;;;3.53;1.67;;;20.70;99.90;;;;;;4977299;28;20640;-73
2023/04/08 08:21:40;;;;;;;2.25;1.70;;;20.70;99.90;;;;;;4977324;28;20243;-73
2023/04/08 08:24:11;;;;;;;2.75;1.80;;;20.70;99.90;;;;;;4977152;28;20224;-74
2023/04/08 08:26:43;;;;;;;1.80;1.65;;;20.70;99.90;;;;;;4977191;28;20530;-76
2023/04/08 08:29:15;;;;;;;3.85;1.77;;;20.60;99.90;;;;;;4977008;28;20188;-73
2023/04/08 08:31:48;;;;;;;2.10;1.90;;;20.60;99.90;;;;;;4977102;28;20564;-74
2023/04/08 08:34:19;;;;;;;1.88;1.60;;;20.60;99.90;;;;;;4976468;28;20219;-74
2023/04/08 08:36:50;;;;;;;2.92;2.10;;;20.50;99.90;;;;;;4976932;28;20197;-75
2023/04/08 08:39:22;;;;;;;3.90;1.90;;;20.50;99.90;;;;;;4976773;28;20193;-75
2023/04/08 08:41:55;;;;;;;2.47;1.60;;;20.50;99.90;;;;;;4976565;28;20193;-74
2023/04/08 08:44:27;;;;;;;2.58;1.40;;;20.40;99.90;;;;;;4976697;28;20224;-75
2023/04/08 08:47:00;;;;;;;2.45;1.90;;;20.40;99.90;;;;;;4977123;28;20304;-74
2023/04/08 08:49:31;;;;;;;4.55;1.77;;;20.40;99.90;;;;;;4976598;28;20543;-74
2023/04/08 08:52:02;;;;;;;2.15;1.70;;;20.40;99.90;;;;;;4976529;28;20283;-74
2023/04/08 08:54:33;;;;;;;2.40;1.83;;;20.40;99.90;;;;;;4976894;28;20196;-75
2023/04/08 08:57:04;;;;;;;3.72;1.90;;;20.30;99.90;;;;;;4976379;28;20196;-75
2023/04/08 08:59:35;;;;;;;3.10;1.70;;;20.30;99.90;;;;;;4976135;28;20240;-77
2023/04/08 09:02:29;;;;;;;3.28;1.75;;;20.30;99.90;;;;;;4976769;28;20678;-74
2023/04/08 09:05:04;;;;;;;1.98;1.77;;;20.30;99.90;;;;;;4976311;28;20224;-77
2023/04/08 09:07:39;;;;;;;2.45;1.80;;;20.20;99.90;;;;;;4976268;28;20196;-75
2023/04/08 09:10:11;;;;;;;2.38;1.67;;;20.20;99.90;;;;;;4976138;28;20191;-74
2023/04/08 09:12:57;;;;;;;2.65;1.80;;;20.20;99.90;;;;;;4976289;28;20196;-74
2023/04/08 09:15:28;;;;;;;3.10;1.80;;;20.10;99.90;;;;;;4976545;28;20193;-74
2023/04/08 09:18:01;;;;;;;3.78;1.80;;;20.10;99.90;;;;;;4976115;28;20201;-74
2023/04/08 09:20:32;;;;;;;2.30;1.80;;;20.10;99.90;;;;;;4976035;28;20188;-74
2023/04/08 09:23:04;;;;;;;2.47;1.50;;;20.10;99.90;;;;;;4976137;28;20199;-75
2023/04/08 09:25:37;;;;;;;3.00;1.80;;;20.10;99.90;;;;;;4962139;28;20231;-75
2023/04/08 09:28:20;;;;;;;3.33;1.60;;;20.00;99.90;;;;;;4975937;28;20200;-74
2023/04/08 09:30:51;;;;;;;4.85;1.90;;;20.00;99.90;;;;;;4975787;28;20199;-74
2023/04/08 09:33:34;;;;;;;2.58;1.63;;;19.90;99.90;;;;;;4975930;28;20196;-75
2023/04/08 09:36:05;;;;;;;2.80;1.90;;;19.90;99.90;;;;;;4976048;28;20254;-75
2023/04/08 09:38:36;;;;;;;2.60;1.83;;;19.90;99.90;;;;;;4975791;28;20188;-74
2023/04/08 09:41:10;;;;;;;3.20;1.80;;;19.90;99.90;;;;;;4975671;28;20195;-74
2023/04/08 09:43:48;;;;;;;2.78;1.75;;;19.90;99.90;;;;;;4975742;28;20196;-74
2023/04/08 09:46:20;;;;;;;3.00;2.00;;;19.80;99.90;;;;;;4975092;28;20312;-74
2023/04/08 09:49:04;;;;;;;2.97;1.90;;;19.80;99.90;;;;;;4975456;28;20193;-74
2023/04/08 09:51:38;;;;;;;2.65;1.90;;;19.80;99.90;;;;;;4975585;28;20204;-75
2023/04/08 09:54:16;;;;;;;2.78;1.90;;;19.70;99.90;;;;;;4975360;28;20698;-75
2023/04/08 09:56:53;;;;;;;3.00;1.98;;;19.70;99.90;;;;;;4975434;28;20207;-75
2023/04/08 09:59:26;;;;;;;4.45;2.63;;;19.70;99.90;;;;;;4975099;28;20236;-74
2023/04/08 10:02:00;;;;;;;2.70;1.77;;;19.70;99.90;;;;;;4975315;28;20217;-74
2023/04/08 10:04:40;;;;;;;2.35;2.00;;;19.70;99.90;;;;;;4975684;28;20621;-74
2023/04/08 10:07:12;;;;;;;2.53;1.90;;;19.60;99.90;;;;;;4975226;28;20195;-75
2023/04/08 10:09:44;;;;;;;3.17;1.98;;;19.60;99.90;;;;;;4974896;28;20193;-75
2023/04/08 10:12:15;;;;;;;3.80;2.17;;;19.60;99.90;;;;;;4975222;28;20196;-74
2023/04/08 10:15:24;;;;;;;3.63;2.10;;;19.50;99.90;;;;;;4975527;28;20197;-74
2023/04/08 10:17:56;;;;;;;2.15;1.73;;;19.50;99.90;;;;;;4975351;28;20727;-76
2023/04/08 10:20:48;;;;;;;1.83;1.50;;;19.40;99.90;;;;;;4975056;28;20193;-75
2023/04/08 10:23:20;;;;;;;3.88;1.80;;;19.40;99.90;;;;;;4974753;28;20238;-75
2023/04/08 10:25:52;;;;;;;2.53;1.92;;;19.40;99.90;;;;;;4974993;28;20246;-74
2023/04/08 10:28:32;;;;;;;3.15;1.63;;;19.40;99.90;;;;;;4974880;28;20192;-74
2023/04/08 10:31:03;;;;;;;2.28;1.70;;;19.40;99.90;;;;;;4974706;28;20192;-74
2023/04/08 10:33:37;;;;;;;3.33;1.73;;;19.40;99.90;;;;;;4974900;28;20228;-75
2023/04/08 10:36:15;;;;;;;2.85;1.60;;;19.40;99.90;;;;;;4975105;28;20196;-75
2023/04/08 10:38:46;;;;;;;2.60;1.60;;;19.30;99.90;;;;;;4974548;28;20235;-77
2023/04/08 10:41:26;;;;;;;4.03;1.77;;;19.30;99.90;;;;;;4974713;28;20188;-74
2023/04/08 10:43:57;;;;;;;2.42;1.80;;;19.40;99.90;;;;;;4974677;28;20279;-74
2023/04/08 10:46:30;;;;;;;1.83;1.70;;;19.40;99.90;;;;;;4974625;28;20231;-75
2023/04/08 10:49:03;;;;;;;2.35;1.75;;;19.40;99.90;;;;;;4974606;28;20695;-75
2023/04/08 10:51:40;;;;;;;1.60;1.50;;;19.30;99.90;;;;;;4974389;28;20630;-75
2023/04/08 10:54:12;;;;;;;2.78;1.55;;;19.30;99.90;;;;;;4974631;28;20192;-75
2023/04/08 10:56:48;;;;;;;1.42;1.30;;;19.30;99.90;;;;;;4974323;28;20200;-74
2023/04/08 10:59:28;;;;;;;1.90;1.50;;;19.30;99.90;;;;;;4974355;28;20294;-74
2023/04/08 11:01:59;;;;;;;3.97;1.15;;;19.20;99.90;;;;;;4974829;28;20196;-75
2023/04/08 11:04:31;;;;;;;1.80;1.40;;;19.20;99.90;;;;;;4974520;28;20207;-74
2023/04/08 11:07:09;;;;;;;1.88;1.38;;;19.20;99.90;;;;;;4974242;28;20197;-74
2023/04/08 11:09:41;;;;;;;1.73;1.10;;;19.20;99.90;;;;;;4974383;28;20204;-75
2023/04/08 11:12:12;;;;;;;2.33;1.30;;;19.20;99.90;;;;;;4974510;28;20196;-74
2023/04/08 11:14:44;;;;;;;3.03;1.30;;;19.20;99.90;;;;;;4974358;28;20648;-75
2023/04/08 11:17:18;;;;;;;1.77;1.25;;;19.10;99.90;;;;;;4974409;28;20196;-74
2023/04/08 11:19:49;;;;;;;2.13;1.13;;;19.10;99.90;;;;;;4974294;28;20188;-74
2023/04/08 11:22:22;;;;;;;1.75;1.10;;;19.00;99.90;;;;;;4974091;28;20204;-74
2023/04/08 11:24:53;;;;;;;2.38;1.20;;;19.00;99.90;;;;;;4974173;28;20223;-75
2023/04/08 11:27:25;;;;;;;2.40;0.98;;;19.00;99.90;;;;;;4971644;28;20204;-75
2023/04/08 11:29:58;;;;;;;1.10;1.00;;;18.90;99.90;;;;;;4963141;28;20243;-74
2023/04/08 11:32:29;;;;;;;1.98;1.10;;;19.00;99.90;;;;;;4974154;28;20208;-74
2023/04/08 11:35:03;;;;;;;1.58;0.90;;;19.00;99.90;;;;;;4974009;28;20224;-76
2023/04/08 11:37:43;;;;;;;0.98;0.88;;;19.00;99.90;;;;;;4974146;28;20594;-75
2023/04/08 11:40:21;;;;;;;1.15;1.05;;;19.10;99.90;;;;;;4974400;28;20199;-76
2023/04/08 11:42:52;;;;;;;1.23;0.95;;;19.00;99.90;;;;;;4974399;28;20627;-75
2023/04/08 11:45:25;;;;;;;1.67;0.85;;;19.00;99.90;;;;;;4974159;28;20573;-78
2023/04/08 11:47:56;;;;;;;1.30;0.90;;;19.00;99.90;;;;;;4974190;28;20192;-78
2023/04/08 11:50:28;;;;;;;1.50;0.90;;;19.00;99.90;;;;;;4973849;28;20666;-75
2023/04/08 11:53:01;;;;;;;1.27;0.90;;;19.00;99.90;;;;;;4974330;28;20196;-75
2023/04/08 11:55:33;;;;;;;2.38;0.98;;;19.00;99.90;;;;;;4974010;28;20192;-75
2023/04/08 11:58:06;;;;;;;0.75;0.75;;;19.00;99.90;;;;;;4974177;28;20219;-75
2023/04/08 12:00:38;;;;;;;2.38;0.80;;;18.90;99.90;;;;;;4973958;28;20200;-76
2023/04/08 12:03:09;;;;;;;1.67;0.93;;;18.90;99.90;;;;;;4973969;28;20188;-75
2023/04/08 12:05:41;;;;;;;1.45;0.70;;;18.80;99.90;;;;;;4973722;28;20560;-74
2023/04/08 12:08:14;;;;;;;1.83;0.95;;;18.80;99.90;;;;;;4974249;28;20196;-74
2023/04/08 12:10:45;;;;;;;1.10;0.95;;;18.80;99.90;;;;;;4977115;28;20200;-75
2023/04/08 12:13:16;;;;;;;1.05;0.80;;;18.80;99.90;;;;;;4977411;28;20193;-75
2023/04/08 12:15:47;;;;;;;2.42;0.80;;;18.80;99.90;;;;;;4977406;28;20291;-74
2023/04/08 12:18:18;;;;;;;2.25;1.02;;;18.80;99.90;;;;;;4977146;28;20563;-75
2023/04/08 12:20:49;;;;;;;1.65;0.82;;;18.70;99.90;;;;;;4977504;28;20219;-76
2023/04/08 12:23:23;;;;;;;1.38;0.70;;;18.70;99.90;;;;;;4977304;28;20196;-73
2023/04/08 12:25:54;;;;;;;0.85;0.80;;;18.70;99.90;;;;;;4977037;28;20711;-74
2023/04/08 12:28:26;;;;;;;0.80;0.80;;;18.60;99.90;;;;;;4977106;28;20652;-76
2023/04/08 12:30:57;;;;;;;1.80;0.82;;;18.60;99.90;;;;;;4977207;28;20198;-74
2023/04/08 12:33:28;;;;;;;1.00;0.90;;;18.60;99.90;;;;;;4976835;28;20193;-74
2023/04/08 12:36:00;;;;;;;1.35;0.80;;;18.60;99.90;;;;;;4977185;28;20196;-75
2023/04/08 12:38:33;;;;;;;1.40;0.90;;;18.50;99.90;;;;;;4977047;28;20263;-76
2023/04/08 12:41:04;;;;;;;3.05;0.80;;;18.50;99.90;;;;;;4976864;28;20192;-76
2023/04/08 12:43:35;;;;;;;1.48;0.80;;;18.50;99.90;;;;;;4977491;28;20193;-75
2023/04/08 12:46:06;;;;;;;2.38;0.80;;;18.60;99.90;;;;;;4976752;28;20208;-75
2023/04/08 12:48:37;;;;;;;1.50;0.80;;;18.50;99.90;;;;;;4976570;28;20562;-75
2023/04/08 12:51:09;;;;;;;0.93;0.75;;;18.50;99.90;;;;;;4976887;28;20192;-75
2023/04/08 12:53:42;;;;;;;1.38;0.70;;;18.50;99.90;;;;;;4976640;28;20653;-75
2023/04/08 12:56:13;;;;;;;1.42;0.77;;;18.40;99.90;;;;;;4976631;28;20215;-74
2023/04/08 12:58:44;;;;;;;0.90;0.80;;;18.40;99.90;;;;;;4976289;28;20626;-74
2023/04/08 13:01:15;;;;;;;1.23;0.88;;;18.40;99.90;;;;;;4976530;28;20193;-75
2023/04/08 13:03:46;;;;;;;1.25;0.82;;;18.30;99.90;;;;;;4976555;28;20196;-75
2023/04/08 13:06:17;;;;;;;1.00;0.90;;;18.30;99.90;;;;;;4976436;28;20263;-74
2023/04/08 13:08:50;;;;;;;1.85;0.80;;;18.20;99.90;;;;;;4976303;28;20195;-74
2023/04/08 13:11:22;;;;;;;1.30;0.90;;;18.20;99.90;;;;;;4976725;28;20196;-74
2023/04/08 13:13:53;;;;;;;2.03;0.80;;;18.10;99.90;;;;;;4976260;28;20196;-74
2023/04/08 13:16:24;;;;;;;0.70;0.70;;;18.10;99.90;;;;;;4976095;28;20188;-75